Time,TemperatureF,DewpointF,PressureIn,WindDirection,WindDirectionDegrees,WindSpeedMPH,WindSpeedGustMPH,Humidity,HourlyPrecipIn,Conditions,Clouds,dailyrainin,SoftwareType,DateUTC
2013-06-13 00:01:00,77.5,70.5,30.09,North,0,0.0,0.0,79,0.00,,SCT120,0.00,VWS V14.01,2013-06-13 04:01:00,
2013-06-13 00:06:00,77.4,70.3,30.09,North,0,0.0,0.0,79,0.00,,SCT120,0.00,VWS V14.01,2013-06-13 04:06:00,
2013-06-13 00:11:00,77.4,70.3,30.06,North,0,0.0,0.0,79,0.00,,SCT120,0.00,VWS V14.01,2013-06-13 04:11:00,
2013-06-13 00:16:00,77.2,70.2,30.06,North,0,0.0,0.0,79,0.00,,SCT120,0.00,VWS V14.01,2013-06-13 04:16:00,
2013-06-13 00:21:00,77.2,70.2,30.06,North,0,0.0,0.0,79,0.00,,SCT120,0.00,VWS V14.01,2013-06-13 04:21:00,
2013-06-13 00:26:00,77.2,70.2,30.06,North,0,0.0,0.0,79,0.00,,SCT120,0.00,VWS V14.01,2013-06-13 04:26:00,
2013-06-13 00:31:00,77.0,70.4,30.06,North,0,0.0,0.0,80,0.00,,SCT120,0.00,VWS V14.01,2013-06-13 04:31:00,
2013-06-13 00:36:00,77.0,70.4,30.06,North,0,0.0,0.0,80,0.00,,SCT120,0.00,VWS V14.01,2013-06-13 04:36:00,
2013-06-13 00:41:00,77.0,70.4,30.06,North,0,0.0,0.0,80,0.00,,SCT120,0.00,VWS V14.01,2013-06-13 04:41:00,
2013-06-13 00:46:00,77.4,70.7,30.06,North,0,0.0,0.0,80,0.00,,SCT120,0.00,VWS V14.01,2013-06-13 04:46:00,
2013-06-13 00:51:00,77.4,70.7,30.06,North,0,0.0,0.0,80,0.00,,SCT120,0.00,VWS V14.01,2013-06-13 04:51:00,
2013-06-13 00:56:00,77.4,70.7,30.06,North,0,0.0,0.0,80,0.00,,SCT120,0.00,VWS V14.01,2013-06-13 04:56:00,
2013-06-13 01:01:00,77.2,70.5,30.06,North,0,0.0,0.0,80,0.00,,SCT120,0.00,VWS V14.01,2013-06-13 05:01:00,
2013-06-13 01:06:00,77.2,70.5,30.06,North,0,0.0,0.0,80,0.00,,SCT120,0.00,VWS V14.01,2013-06-13 05:06:00,
2013-06-13 01:11:00,77.2,70.5,30.06,North,0,0.0,0.0,80,0.00,,SCT120,0.00,VWS V14.01,2013-06-13 05:11:00,
2013-06-13 01:16:00,77.2,70.5,30.06,North,0,0.0,0.0,80,0.00,,SCT120,0.00,VWS V14.01,2013-06-13 05:16:00,
2013-06-13 01:21:00,77.0,70.4,30.06,North,0,0.0,0.0,80,0.00,,SCT120,0.00,VWS V14.01,2013-06-13 05:21:00,
2013-06-13 01:26:00,77.0,70.4,30.06,North,0,0.0,0.0,80,0.00,,SCT120,0.00,VWS V14.01,2013-06-13 05:26:00,
2013-06-13 01:31:00,77.0,70.4,30.06,North,0,0.0,0.0,80,0.00,,SCT120,0.00,VWS V14.01,2013-06-13 05:31:00,
2013-06-13 01:36:00,76.8,70.2,30.06,North,0,0.0,0.0,80,0.00,,SCT120,0.00,VWS V14.01,2013-06-13 05:36:00,
2013-06-13 01:41:00,76.6,70.0,30.06,North,0,0.0,0.0,80,0.00,,SCT120,0.00,VWS V14.01,2013-06-13 05:41:00,
2013-06-13 01:46:00,76.5,70.2,30.06,North,0,0.0,0.0,81,0.00,,SCT120,0.00,VWS V14.01,2013-06-13 05:46:00,
2013-06-13 01:51:00,76.5,70.2,30.06,North,0,0.0,0.0,81,0.00,,SCT120,0.00,VWS V14.01,2013-06-13 05:51:00,
2013-06-13 01:56:00,76.5,70.2,30.06,North,0,0.0,0.0,81,0.00,,SCT120,0.00,VWS V14.01,2013-06-13 05:56:00,
2013-06-13 02:01:00,76.3,70.4,30.06,North,0,0.0,0.0,82,0.00,,SCT120,0.00,VWS V14.01,2013-06-13 06:01:00,
2013-06-13 02:06:00,76.5,70.6,30.06,North,0,0.0,0.0,82,0.00,,SCT120,0.00,VWS V14.01,2013-06-13 06:06:00,
2013-06-13 02:11:00,76.5,70.9,30.03,North,0,0.0,0.0,83,0.00,,SCT120,0.00,VWS V14.01,2013-06-13 06:11:00,
2013-06-13 02:16:00,76.3,70.7,30.03,North,0,0.0,0.0,83,0.00,,SCT120,0.00,VWS V14.01,2013-06-13 06:16:00,
2013-06-13 02:21:00,76.5,70.9,30.03,North,0,0.0,0.0,83,0.00,,SCT120,0.00,VWS V14.01,2013-06-13 06:21:00,
2013-06-13 02:26:00,76.5,71.3,30.06,North,0,0.0,0.0,84,0.00,,SCT120,0.00,VWS V14.01,2013-06-13 06:26:00,
2013-06-13 02:31:00,76.5,71.3,30.06,North,0,0.0,0.0,84,0.00,,SCT120,0.00,VWS V14.01,2013-06-13 06:31:00,
2013-06-13 02:36:00,76.5,71.3,30.06,North,0,0.0,0.0,84,0.00,,SCT120,0.00,VWS V14.01,2013-06-13 06:36:00,
2013-06-13 02:41:00,76.3,71.1,30.06,North,0,0.0,0.0,84,0.00,,SCT120,0.00,VWS V14.01,2013-06-13 06:41:00,
2013-06-13 02:46:00,76.3,71.1,30.06,North,0,0.0,0.0,84,0.00,,SCT120,0.00,VWS V14.01,2013-06-13 06:46:00,
2013-06-13 02:51:00,76.5,71.3,30.06,North,0,0.0,0.0,84,0.00,,SCT120,0.00,VWS V14.01,2013-06-13 06:51:00,
2013-06-13 02:56:00,76.6,71.4,30.03,North,0,0.0,0.0,84,0.00,,SCT120,0.00,VWS V14.01,2013-06-13 06:56:00,
2013-06-13 03:01:00,76.6,71.4,30.03,North,0,0.0,0.0,84,0.00,,SCT120,0.00,VWS V14.01,2013-06-13 07:01:00,
2013-06-13 03:06:00,76.5,71.3,30.03,North,0,0.0,0.0,84,0.00,,SCT120,0.00,VWS V14.01,2013-06-13 07:06:00,
2013-06-13 03:11:00,76.3,71.1,30.03,North,0,0.0,0.0,84,0.00,,SCT120,0.00,VWS V14.01,2013-06-13 07:11:00,
2013-06-13 03:16:00,76.1,70.9,30.03,North,0,0.0,0.0,84,0.00,,SCT120,0.00,VWS V14.01,2013-06-13 07:16:00,
2013-06-13 03:21:00,75.9,70.7,30.03,North,0,0.0,0.0,84,0.00,,SCT120,0.00,VWS V14.01,2013-06-13 07:21:00,
2013-06-13 03:26:00,75.9,70.7,30.03,North,0,0.0,0.0,84,0.00,,SCT120,0.00,VWS V14.01,2013-06-13 07:26:00,
2013-06-13 03:31:00,75.9,71.1,30.03,North,0,0.0,0.0,85,0.00,,SCT120,0.00,VWS V14.01,2013-06-13 07:31:00,
2013-06-13 03:36:00,75.9,71.1,30.03,North,0,0.0,0.0,85,0.00,,SCT120,0.00,VWS V14.01,2013-06-13 07:36:00,
2013-06-13 03:41:00,75.9,71.1,30.03,North,0,0.0,0.0,85,0.00,,SCT120,0.00,VWS V14.01,2013-06-13 07:41:00,
2013-06-13 03:46:00,75.9,71.1,30.03,North,0,0.0,0.0,85,0.00,,SCT120,0.00,VWS V14.01,2013-06-13 07:46:00,
2013-06-13 03:51:00,75.9,71.1,30.03,North,0,0.0,0.0,85,0.00,,SCT120,0.00,VWS V14.01,2013-06-13 07:51:00,
2013-06-13 03:57:00,75.9,71.1,30.03,North,0,0.0,0.0,85,0.00,,SCT120,0.00,VWS V14.01,2013-06-13 07:57:00,
2013-06-13 04:01:00,75.9,71.1,30.03,North,0,0.0,0.0,85,0.00,,SCT120,0.00,VWS V14.01,2013-06-13 08:01:00,
2013-06-13 04:07:00,75.9,71.1,30.03,North,0,0.0,0.0,85,0.00,,SCT120,0.00,VWS V14.01,2013-06-13 08:07:00,
2013-06-13 04:12:00,75.7,70.9,30.03,North,0,0.0,0.0,85,0.00,,SCT120,0.00,VWS V14.01,2013-06-13 08:12:00,
2013-06-13 04:17:00,75.6,70.7,30.03,North,0,0.0,0.0,85,0.00,,SCT120,0.00,VWS V14.01,2013-06-13 08:17:00,
2013-06-13 04:22:00,75.4,70.6,30.03,North,0,0.0,0.0,85,0.00,,SCT120,0.00,VWS V14.01,2013-06-13 08:22:00,
2013-06-13 04:27:00,75.4,70.6,30.03,North,0,0.0,0.0,85,0.00,,SCT120,0.00,VWS V14.01,2013-06-13 08:27:00,
2013-06-13 04:32:00,75.4,70.6,30.03,North,0,0.0,0.0,85,0.00,,SCT120,0.00,VWS V14.01,2013-06-13 08:32:00,
2013-06-13 04:37:00,75.2,70.4,30.03,North,0,0.0,0.0,85,0.00,,SCT120,0.00,VWS V14.01,2013-06-13 08:37:00,
2013-06-13 04:42:00,75.2,70.4,30.03,North,0,0.0,0.0,85,0.00,,SCT120,0.00,VWS V14.01,2013-06-13 08:42:00,
2013-06-13 04:47:00,75.2,70.4,30.03,North,0,0.0,0.0,85,0.00,,SCT120,0.00,VWS V14.01,2013-06-13 08:47:00,
2013-06-13 04:52:00,75.2,70.4,30.03,North,0,0.0,0.0,85,0.00,,SCT120,0.00,VWS V14.01,2013-06-13 08:52:00,
2013-06-13 04:57:00,75.0,70.6,30.03,North,0,0.0,0.0,86,0.00,,SCT120,0.00,VWS V14.01,2013-06-13 08:57:00,
2013-06-13 05:02:00,75.0,70.6,30.03,North,0,0.0,0.0,86,0.00,,SCT120,0.00,VWS V14.01,2013-06-13 09:02:00,
2013-06-13 05:07:00,75.2,70.7,30.03,North,0,0.0,0.0,86,0.00,,SCT120,0.00,VWS V14.01,2013-06-13 09:07:00,
2013-06-13 05:12:00,75.2,70.7,30.03,North,0,0.0,0.0,86,0.00,,SCT120,0.00,VWS V14.01,2013-06-13 09:12:00,
2013-06-13 05:17:00,75.4,70.9,30.03,North,0,0.0,0.0,86,0.00,,SCT120,0.00,VWS V14.01,2013-06-13 09:17:00,
2013-06-13 05:22:00,75.4,70.9,30.03,North,0,0.0,0.0,86,0.00,,SCT120,0.00,VWS V14.01,2013-06-13 09:22:00,
2013-06-13 05:27:00,75.2,70.7,30.03,North,0,0.0,0.0,86,0.00,,SCT120,0.00,VWS V14.01,2013-06-13 09:27:00,
2013-06-13 05:32:00,75.0,70.6,30.03,North,0,0.0,0.0,86,0.00,,SCT120,0.00,VWS V14.01,2013-06-13 09:32:00,
2013-06-13 05:37:00,74.8,70.4,30.03,North,0,0.0,0.0,86,0.00,,SCT120,0.00,VWS V14.01,2013-06-13 09:37:00,
2013-06-13 05:42:00,74.8,70.7,30.03,North,0,0.0,0.0,87,0.00,,SCT120,0.00,VWS V14.01,2013-06-13 09:42:00,
2013-06-13 05:47:00,74.8,70.7,30.03,North,0,0.0,0.0,87,0.00,,SCT120,0.00,VWS V14.01,2013-06-13 09:47:00,
2013-06-13 05:52:00,74.7,70.5,30.03,North,0,0.0,0.0,87,0.00,,SCT120,0.00,VWS V14.01,2013-06-13 09:52:00,
2013-06-13 05:57:00,74.7,70.5,30.03,North,0,0.0,0.0,87,0.00,,SCT120,0.00,VWS V14.01,2013-06-13 09:57:00,
2013-06-13 06:02:00,74.7,70.5,30.03,North,0,0.0,0.0,87,0.00,,SCT120,0.00,VWS V14.01,2013-06-13 10:02:00,
2013-06-13 06:07:00,74.7,70.5,30.03,North,0,0.0,0.0,87,0.00,,SCT120,0.00,VWS V14.01,2013-06-13 10:07:00,
2013-06-13 06:12:00,74.8,71.1,30.03,North,0,0.0,0.0,88,0.00,,SCT120,0.00,VWS V14.01,2013-06-13 10:12:00,
2013-06-13 06:17:00,75.0,71.2,30.03,North,0,0.0,0.0,88,0.00,,SCT120,0.00,VWS V14.01,2013-06-13 10:17:00,
2013-06-13 06:22:00,75.2,71.1,30.03,North,0,0.0,0.0,87,0.00,,SCT120,0.00,VWS V14.01,2013-06-13 10:22:00,
2013-06-13 06:27:00,75.2,71.1,30.03,North,0,0.0,0.0,87,0.00,,SCT120,0.00,VWS V14.01,2013-06-13 10:27:00,
2013-06-13 06:32:00,75.4,71.2,30.03,North,0,0.0,0.0,87,0.00,,SCT120,0.00,VWS V14.01,2013-06-13 10:32:00,
2013-06-13 06:37:00,75.4,71.2,30.03,North,0,0.0,0.0,87,0.00,,SCT120,0.00,VWS V14.01,2013-06-13 10:37:00,
2013-06-13 06:42:00,75.7,71.6,30.03,North,0,0.0,0.0,87,0.00,,SCT120,0.00,VWS V14.01,2013-06-13 10:42:00,
2013-06-13 06:47:00,76.1,71.9,30.03,North,0,0.0,0.0,87,0.00,,SCT120,0.00,VWS V14.01,2013-06-13 10:47:00,
2013-06-13 06:52:00,76.3,72.1,30.03,North,0,0.0,0.0,87,0.00,,SCT120,0.00,VWS V14.01,2013-06-13 10:52:00,
2013-06-13 06:57:00,76.5,72.3,30.03,North,0,0.0,0.0,87,0.00,,SCT120,0.00,VWS V14.01,2013-06-13 10:57:00,
2013-06-13 07:02:00,76.8,72.7,30.03,North,0,0.0,0.0,87,0.00,,SCT120,0.00,VWS V14.01,2013-06-13 11:02:00,
2013-06-13 07:07:00,77.4,73.2,30.03,North,0,0.0,0.0,87,0.00,,SCT120,0.00,VWS V14.01,2013-06-13 11:07:00,
2013-06-13 07:12:00,77.7,73.2,30.03,North,0,0.0,0.0,86,0.00,,SCT120,0.00,VWS V14.01,2013-06-13 11:12:00,
2013-06-13 07:17:00,78.1,73.6,30.03,North,0,0.0,0.0,86,0.00,,SCT120,0.00,VWS V14.01,2013-06-13 11:17:00,
2013-06-13 07:22:00,78.4,73.2,30.03,North,0,0.0,0.0,84,0.00,,SCT120,0.00,VWS V14.01,2013-06-13 11:22:00,
2013-06-13 07:27:00,79.0,73.0,30.06,North,0,0.0,0.0,82,0.00,,SCT120,0.00,VWS V14.01,2013-06-13 11:27:00,
2013-06-13 07:32:00,79.3,73.4,30.06,North,0,0.0,0.0,82,0.00,,SCT120,0.00,VWS V14.01,2013-06-13 11:32:00,
2013-06-13 07:37:00,79.9,73.5,30.06,North,0,0.0,0.0,81,0.00,,SCT120,0.00,VWS V14.01,2013-06-13 11:37:00,
2013-06-13 07:42:00,80.2,73.5,30.06,North,0,0.0,0.0,80,0.00,,SCT120,0.00,VWS V14.01,2013-06-13 11:42:00,
2013-06-13 07:47:00,80.6,73.1,30.06,North,0,0.0,0.0,78,0.00,,SCT120,0.00,VWS V14.01,2013-06-13 11:47:00,
2013-06-13 07:52:00,81.0,73.1,30.06,North,0,0.0,0.0,77,0.00,,SCT120,0.00,VWS V14.01,2013-06-13 11:52:00,
2013-06-13 07:57:00,81.1,72.1,30.06,North,0,0.0,0.0,74,0.00,,SCT120,0.00,VWS V14.01,2013-06-13 11:57:00,
2013-06-13 08:02:00,81.7,72.2,30.06,North,0,0.0,0.0,73,0.00,,SCT120,0.00,VWS V14.01,2013-06-13 12:02:00,
2013-06-13 08:07:00,81.9,71.1,30.06,North,0,0.0,0.0,70,0.00,,SCT120,0.00,VWS V14.01,2013-06-13 12:07:00,
2013-06-13 08:12:00,82.2,70.6,30.06,North,0,0.0,0.0,68,0.00,,SCT120,0.00,VWS V14.01,2013-06-13 12:12:00,
2013-06-13 08:17:00,82.4,69.5,30.06,North,0,0.0,0.0,65,0.00,,SCT120,0.00,VWS V14.01,2013-06-13 12:17:00,
2013-06-13 08:22:00,82.6,69.2,30.06,North,0,0.0,0.0,64,0.00,,SCT120,0.00,VWS V14.01,2013-06-13 12:22:00,
2013-06-13 08:27:00,83.1,68.8,30.06,North,0,0.0,0.0,62,0.00,,SCT120,0.00,VWS V14.01,2013-06-13 12:27:00,
2013-06-13 08:32:00,83.5,67.2,30.06,North,0,0.0,0.0,58,0.00,,SCT120,0.00,VWS V14.01,2013-06-13 12:32:00,
2013-06-13 08:37:00,83.8,66.5,30.06,North,0,0.0,0.0,56,0.00,,SCT120,0.00,VWS V14.01,2013-06-13 12:37:00,
2013-06-13 08:42:00,84.4,65.9,30.06,North,0,0.0,0.0,54,0.00,,SCT120,0.00,VWS V14.01,2013-06-13 12:42:00,
2013-06-13 08:47:00,84.7,63.5,30.06,North,0,0.0,0.0,49,0.00,,SCT120,0.00,VWS V14.01,2013-06-13 12:47:00,
2013-06-13 08:52:00,85.1,62.6,30.06,North,0,0.0,0.0,47,0.00,,SCT120,0.00,VWS V14.01,2013-06-13 12:52:00,
2013-06-13 08:57:00,85.6,62.5,30.06,North,0,0.0,0.0,46,0.00,,SCT120,0.00,VWS V14.01,2013-06-13 12:57:00,
2013-06-13 09:02:00,86.4,62.5,30.06,North,0,0.0,0.0,45,0.00,,SCT120,0.00,VWS V14.01,2013-06-13 13:02:00,
2013-06-13 09:07:00,86.5,61.4,30.06,North,0,0.0,0.0,43,0.00,,SCT120,0.00,VWS V14.01,2013-06-13 13:07:00,
2013-06-13 09:12:00,86.9,59.7,30.06,North,0,0.0,0.0,40,0.00,,SCT120,0.00,VWS V14.01,2013-06-13 13:12:00,
2013-06-13 09:17:00,87.1,57.7,30.06,North,0,0.0,0.0,37,0.00,,SCT120,0.00,VWS V14.01,2013-06-13 13:17:00,
2013-06-13 09:22:00,87.1,55.3,30.06,North,0,0.0,0.0,34,0.00,,SCT120,0.00,VWS V14.01,2013-06-13 13:22:00,
2013-06-13 09:27:00,87.6,55.8,30.06,North,0,0.0,0.0,34,0.00,,SCT120,0.00,VWS V14.01,2013-06-13 13:27:00,
2013-06-13 09:32:00,88.0,53.6,30.06,North,0,0.0,0.0,31,0.00,,SCT120,0.00,VWS V14.01,2013-06-13 13:32:00,
2013-06-13 09:37:00,88.5,54.1,30.06,North,0,0.0,0.0,31,0.00,,SCT120,0.00,VWS V14.01,2013-06-13 13:37:00,
2013-06-13 09:42:00,89.1,52.7,30.06,North,0,0.0,0.0,29,0.00,,SCT120,0.00,VWS V14.01,2013-06-13 13:42:00,
2013-06-13 09:47:00,89.6,53.2,30.06,North,0,0.0,0.0,29,0.00,,SCT120,0.00,VWS V14.01,2013-06-13 13:47:00,
2013-06-13 09:52:00,89.4,53.9,30.06,North,0,0.0,0.0,30,0.00,,SCT120,0.00,VWS V14.01,2013-06-13 13:52:00,
2013-06-13 09:58:00,89.1,53.6,30.06,North,0,0.0,0.0,30,0.00,,SCT120,0.00,VWS V14.01,2013-06-13 13:58:00,
2013-06-13 10:03:00,88.7,54.2,30.06,North,0,0.0,0.0,31,0.00,,SCT120,0.00,VWS V14.01,2013-06-13 14:03:00,
2013-06-13 10:08:00,88.7,54.2,30.06,North,0,0.0,0.0,31,0.00,,SCT120,0.00,VWS V14.01,2013-06-13 14:08:00,
2013-06-13 10:13:00,87.6,55.0,30.06,North,0,0.0,0.0,33,0.00,,SCT120,0.00,VWS V14.01,2013-06-13 14:13:00,
2013-06-13 10:18:00,86.7,56.6,30.06,North,0,0.0,0.0,36,0.00,,SCT120,0.00,VWS V14.01,2013-06-13 14:18:00,
2013-06-13 10:23:00,86.4,57.0,30.06,North,0,0.0,0.0,37,0.00,,SCT120,0.00,VWS V14.01,2013-06-13 14:23:00,
2013-06-13 10:28:00,86.9,56.0,30.06,North,0,0.0,0.0,35,0.00,,SCT120,0.00,VWS V14.01,2013-06-13 14:28:00,
2013-06-13 10:33:00,87.3,55.5,30.06,North,0,0.0,0.0,34,0.00,,SCT120,0.00,VWS V14.01,2013-06-13 14:33:00,
2013-06-13 10:38:00,87.3,55.5,30.06,North,0,0.0,0.0,34,0.00,,SCT120,0.00,VWS V14.01,2013-06-13 14:38:00,
2013-06-13 10:43:00,86.7,57.4,30.03,North,0,0.0,0.0,37,0.00,,SCT120,0.00,VWS V14.01,2013-06-13 14:43:00,
2013-06-13 10:48:00,86.9,56.0,30.03,North,0,0.0,0.0,35,0.00,,SCT120,0.00,VWS V14.01,2013-06-13 14:48:00,
2013-06-13 10:53:00,87.1,58.4,30.03,North,0,0.0,0.0,38,0.00,,SCT120,0.00,VWS V14.01,2013-06-13 14:53:00,
2013-06-13 10:58:00,87.6,58.9,30.06,North,0,0.0,0.0,38,0.00,,SCT120,0.00,VWS V14.01,2013-06-13 14:58:00,
2013-06-13 11:03:00,88.3,56.4,30.06,North,0,0.0,0.0,34,0.00,,SCT120,0.00,VWS V14.01,2013-06-13 15:03:00,
2013-06-13 11:08:00,88.7,54.2,30.06,North,0,0.0,0.0,31,0.00,,SCT120,0.00,VWS V14.01,2013-06-13 15:08:00,
2013-06-13 11:13:00,89.4,53.9,30.06,North,0,0.0,0.0,30,0.00,,SCT120,0.00,VWS V14.01,2013-06-13 15:13:00,
2013-06-13 11:18:00,90.0,54.4,30.06,North,0,0.0,0.0,30,0.00,,SCT120,0.00,VWS V14.01,2013-06-13 15:18:00,
2013-06-13 11:23:00,90.0,53.5,30.06,North,0,0.0,0.0,29,0.00,,SCT120,0.00,VWS V14.01,2013-06-13 15:23:00,
2013-06-13 11:28:00,89.6,54.1,30.06,North,0,0.0,0.0,30,0.00,,SCT120,0.00,VWS V14.01,2013-06-13 15:28:00,
2013-06-13 11:33:00,89.4,53.9,30.06,North,0,0.0,0.0,30,0.00,,SCT120,0.00,VWS V14.01,2013-06-13 15:33:00,
2013-06-13 11:38:00,89.6,53.2,30.06,North,0,0.0,0.0,29,0.00,,SCT120,0.00,VWS V14.01,2013-06-13 15:38:00,
2013-06-13 11:43:00,90.1,52.7,30.06,North,0,0.0,0.0,28,0.00,,SCT120,0.00,VWS V14.01,2013-06-13 15:43:00,
2013-06-13 11:48:00,90.9,54.2,30.06,North,0,0.0,0.0,29,0.00,,SCT120,0.00,VWS V14.01,2013-06-13 15:48:00,
2013-06-13 11:53:00,90.3,53.8,30.06,North,0,0.0,0.0,29,0.00,,SCT120,0.00,VWS V14.01,2013-06-13 15:53:00,
2013-06-13 11:58:00,90.0,53.5,30.06,North,0,0.0,0.0,29,0.00,,SCT120,0.00,VWS V14.01,2013-06-13 15:58:00,
2013-06-13 12:03:00,90.9,55.2,30.06,North,0,0.0,0.0,30,0.00,,SCT120,0.00,VWS V14.01,2013-06-13 16:03:00,
2013-06-13 12:08:00,91.8,54.0,30.06,North,0,0.0,0.0,28,0.00,,SCT120,0.00,VWS V14.01,2013-06-13 16:08:00,
2013-06-13 12:13:00,92.1,53.4,30.03,North,0,0.0,0.0,27,0.00,,SCT120,0.00,VWS V14.01,2013-06-13 16:13:00,
2013-06-13 12:18:00,91.4,52.8,30.03,North,0,0.0,0.0,27,0.00,,SCT120,0.00,VWS V14.01,2013-06-13 16:18:00,
2013-06-13 12:23:00,92.1,54.4,30.03,North,0,0.0,0.0,28,0.00,,SCT120,0.00,VWS V14.01,2013-06-13 16:23:00,
2013-06-13 12:28:00,92.7,52.8,30.03,North,0,0.0,0.0,26,0.00,,SCT120,0.00,VWS V14.01,2013-06-13 16:28:00,
2013-06-13 12:33:00,91.4,51.7,30.03,North,0,0.0,0.0,26,0.00,,SCT120,0.00,VWS V14.01,2013-06-13 16:33:00,
2013-06-13 12:38:00,91.0,53.4,30.03,North,0,0.0,0.0,28,0.00,,SCT120,0.00,VWS V14.01,2013-06-13 16:38:00,
2013-06-13 12:43:00,90.7,53.1,30.03,North,0,0.0,0.0,28,0.00,,SCT120,0.00,VWS V14.01,2013-06-13 16:43:00,
2013-06-13 12:48:00,91.8,54.0,30.03,North,0,0.0,0.0,28,0.00,,SCT120,0.00,VWS V14.01,2013-06-13 16:48:00,
2013-06-13 12:53:00,91.0,53.4,30.03,North,0,0.0,0.0,28,0.00,,SCT120,0.00,VWS V14.01,2013-06-13 16:53:00,
2013-06-13 12:58:00,90.9,54.2,30.03,North,0,0.0,0.0,29,0.00,,SCT120,0.00,VWS V14.01,2013-06-13 16:58:00,
2013-06-13 13:03:00,90.9,54.2,30.03,North,0,0.0,0.0,29,0.00,,SCT120,0.00,VWS V14.01,2013-06-13 17:03:00,
2013-06-13 13:08:00,90.7,54.1,30.03,North,0,0.0,0.0,29,0.00,,SCT120,0.00,VWS V14.01,2013-06-13 17:08:00,
2013-06-13 13:13:00,91.8,54.0,30.03,North,0,0.0,0.0,28,0.00,,SCT120,0.00,VWS V14.01,2013-06-13 17:13:00,
2013-06-13 13:18:00,91.9,54.2,30.03,North,0,0.0,0.0,28,0.00,,SCT120,0.00,VWS V14.01,2013-06-13 17:18:00,
2013-06-13 13:23:00,91.6,53.9,30.03,North,0,0.0,0.0,28,0.00,,SCT120,0.00,VWS V14.01,2013-06-13 17:23:00,
2013-06-13 13:28:00,91.2,54.5,30.03,North,0,0.0,0.0,29,0.00,,SCT120,0.00,VWS V14.01,2013-06-13 17:28:00,
2013-06-13 13:33:00,91.9,54.2,30.03,North,0,0.0,0.0,28,0.00,,SCT120,0.00,VWS V14.01,2013-06-13 17:33:00,
2013-06-13 13:38:00,92.5,53.7,30.03,North,0,0.0,0.0,27,0.00,,SCT120,0.00,VWS V14.01,2013-06-13 17:38:00,
2013-06-13 13:43:00,92.7,53.8,30.03,North,0,0.0,0.0,27,0.00,,SCT120,0.00,VWS V14.01,2013-06-13 17:43:00,
2013-06-13 13:48:00,92.1,53.4,30.03,North,0,0.0,0.0,27,0.00,,SCT120,0.00,VWS V14.01,2013-06-13 17:48:00,
2013-06-13 13:53:00,92.3,53.5,30.03,North,0,0.0,0.0,27,0.00,,SCT120,0.00,VWS V14.01,2013-06-13 17:53:00,
2013-06-13 13:58:00,91.4,52.8,30.00,North,0,0.0,0.0,27,0.00,,SCT120,0.00,VWS V14.01,2013-06-13 17:58:00,
2013-06-13 14:03:00,91.8,54.0,30.00,North,0,0.0,0.0,28,0.00,,SCT120,0.00,VWS V14.01,2013-06-13 18:03:00,
2013-06-13 14:08:00,92.7,53.8,30.00,North,0,0.0,0.0,27,0.00,,SCT120,0.00,VWS V14.01,2013-06-13 18:08:00,
2013-06-13 14:13:00,91.4,52.8,30.00,North,0,0.0,0.0,27,0.00,,SCT120,0.00,VWS V14.01,2013-06-13 18:13:00,
2013-06-13 14:18:00,92.3,53.5,30.00,North,0,0.0,0.0,27,0.00,,SCT120,0.00,VWS V14.01,2013-06-13 18:18:00,
2013-06-13 14:23:00,92.7,52.8,30.00,North,0,0.0,0.0,26,0.00,,SCT120,0.00,VWS V14.01,2013-06-13 18:23:00,
2013-06-13 14:28:00,93.4,51.2,30.00,North,0,0.0,0.0,24,0.00,,SCT120,0.00,VWS V14.01,2013-06-13 18:28:00,
2013-06-13 14:33:00,93.4,51.2,30.00,North,0,0.0,0.0,24,0.00,,SCT120,0.00,VWS V14.01,2013-06-13 18:33:00,
2013-06-13 14:38:00,93.7,48.0,30.00,North,0,0.0,0.0,21,0.00,,SCT120,0.00,VWS V14.01,2013-06-13 18:38:00,
2013-06-13 14:43:00,93.9,48.1,30.00,North,0,0.0,0.0,21,0.00,,SCT120,0.00,VWS V14.01,2013-06-13 18:43:00,
2013-06-13 14:48:00,93.7,50.4,30.00,North,0,0.0,0.0,23,0.00,,SCT120,0.00,VWS V14.01,2013-06-13 18:48:00,
2013-06-13 14:53:00,93.7,49.2,30.00,North,0,0.0,0.0,22,0.00,,SCT120,0.00,VWS V14.01,2013-06-13 18:53:00,
2013-06-13 14:58:00,93.2,51.1,30.00,North,0,0.0,0.0,24,0.00,,SCT120,0.00,VWS V14.01,2013-06-13 18:58:00,
2013-06-13 15:03:00,92.8,53.0,30.00,North,0,0.0,0.0,26,0.00,,SCT120,0.00,VWS V14.01,2013-06-13 19:03:00,
2013-06-13 15:08:00,93.7,51.5,30.00,North,0,0.0,0.0,24,0.00,,SCT120,0.00,VWS V14.01,2013-06-13 19:08:00,
2013-06-13 15:13:00,93.7,51.5,30.00,North,0,0.0,0.0,24,0.00,,SCT120,0.00,VWS V14.01,2013-06-13 19:13:00,
2013-06-13 15:18:00,93.4,50.1,30.00,North,0,0.0,0.0,23,0.00,,SCT120,0.00,VWS V14.01,2013-06-13 19:18:00,
2013-06-13 15:23:00,93.4,50.1,30.00,North,0,0.0,0.0,23,0.00,,SCT120,0.00,VWS V14.01,2013-06-13 19:23:00,
2013-06-13 15:28:00,93.7,51.5,29.97,North,0,0.0,0.0,24,0.00,,SCT120,0.00,VWS V14.01,2013-06-13 19:28:00,
2013-06-13 15:33:00,93.2,52.2,29.97,North,0,0.0,0.0,25,0.00,,SCT120,0.00,VWS V14.01,2013-06-13 19:33:00,
2013-06-13 15:38:00,93.0,50.9,29.97,North,0,0.0,0.0,24,0.00,,SCT120,0.00,VWS V14.01,2013-06-13 19:38:00,
2013-06-13 15:43:00,92.1,53.4,29.97,North,0,0.0,0.0,27,0.00,,SCT120,0.00,VWS V14.01,2013-06-13 19:43:00,
2013-06-13 15:48:00,91.8,53.1,29.97,North,0,0.0,0.0,27,0.00,,SCT120,0.00,VWS V14.01,2013-06-13 19:48:00,
2013-06-13 15:53:00,92.7,53.8,29.97,North,0,0.0,0.0,27,0.00,,SCT120,0.00,VWS V14.01,2013-06-13 19:53:00,
2013-06-13 15:58:00,92.3,53.5,29.97,North,0,0.0,0.0,27,0.00,,SCT120,0.00,VWS V14.01,2013-06-13 19:58:00,
2013-06-13 16:03:00,91.8,53.1,29.97,North,0,0.0,0.0,27,0.00,,SCT120,0.00,VWS V14.01,2013-06-13 20:03:00,
2013-06-13 16:08:00,91.2,53.6,29.97,North,0,0.0,0.0,28,0.00,,SCT120,0.00,VWS V14.01,2013-06-13 20:08:00,
2013-06-13 16:13:00,91.9,54.2,29.97,North,0,0.0,0.0,28,0.00,,SCT120,0.00,VWS V14.01,2013-06-13 20:13:00,
2013-06-13 16:18:00,92.7,53.8,29.97,North,0,0.0,0.0,27,0.00,,SCT120,0.00,VWS V14.01,2013-06-13 20:18:00,
2013-06-13 16:23:00,91.9,54.2,29.97,North,0,0.0,0.0,28,0.00,,SCT120,0.00,VWS V14.01,2013-06-13 20:23:00,
2013-06-13 16:28:00,92.3,54.5,29.97,North,0,0.0,0.0,28,0.00,,SCT120,0.00,VWS V14.01,2013-06-13 20:28:00,
2013-06-13 16:33:00,91.9,53.2,29.97,North,0,0.0,0.0,27,0.00,,SCT120,0.00,VWS V14.01,2013-06-13 20:33:00,
2013-06-13 16:38:00,91.2,53.6,29.97,North,0,0.0,0.0,28,0.00,,SCT120,0.00,VWS V14.01,2013-06-13 20:38:00,
2013-06-13 16:43:00,91.0,53.4,29.97,North,0,0.0,0.0,28,0.00,,SCT120,0.00,VWS V14.01,2013-06-13 20:43:00,
2013-06-13 16:48:00,91.4,53.8,29.97,North,0,0.0,0.0,28,0.00,,SCT120,0.00,VWS V14.01,2013-06-13 20:48:00,
2013-06-13 16:53:00,91.9,54.2,29.97,North,0,0.0,0.0,28,0.00,,SCT120,0.00,VWS V14.01,2013-06-13 20:53:00,
2013-06-13 16:58:00,91.2,53.6,29.97,North,0,0.0,0.0,28,0.00,,SCT120,0.00,VWS V14.01,2013-06-13 20:58:00,
2013-06-13 17:03:00,91.2,53.6,29.97,North,0,0.0,0.0,28,0.00,,SCT120,0.00,VWS V14.01,2013-06-13 21:03:00,
2013-06-13 17:08:00,90.9,56.1,29.97,North,0,0.0,0.0,31,0.00,,SCT120,0.00,VWS V14.01,2013-06-13 21:08:00,
2013-06-13 17:13:00,90.0,57.9,29.97,North,0,0.0,0.0,34,0.00,,SCT120,0.00,VWS V14.01,2013-06-13 21:13:00,
2013-06-13 17:18:00,89.4,59.0,29.97,North,0,0.0,0.0,36,0.00,,SCT120,0.00,VWS V14.01,2013-06-13 21:18:00,
2013-06-13 17:23:00,88.2,60.1,29.97,North,0,0.0,0.0,39,0.08,,SCT120,0.08,VWS V14.01,2013-06-13 21:23:00,
2013-06-13 17:28:00,87.8,63.2,29.97,North,0,0.0,0.0,44,0.08,,SCT120,0.08,VWS V14.01,2013-06-13 21:28:00,
2013-06-13 17:33:00,88.2,63.5,29.97,North,0,0.0,0.0,44,0.08,,SCT120,0.08,VWS V14.01,2013-06-13 21:33:00,
2013-06-13 17:38:00,88.3,65.6,29.97,North,0,0.0,0.0,47,0.08,,SCT120,0.08,VWS V14.01,2013-06-13 21:38:00,
2013-06-13 17:43:00,88.0,63.4,29.97,North,0,0.0,0.0,44,0.08,,SCT120,0.08,VWS V14.01,2013-06-13 21:43:00,
2013-06-13 17:48:00,87.4,64.8,29.97,North,0,0.0,0.0,47,0.08,,SCT120,0.08,VWS V14.01,2013-06-13 21:48:00,
2013-06-13 17:53:00,87.3,64.0,29.97,North,0,0.0,0.0,46,0.08,,SCT120,0.08,VWS V14.01,2013-06-13 21:53:00,
2013-06-13 17:58:00,87.6,64.3,29.97,North,0,0.0,0.0,46,0.08,,SCT120,0.08,VWS V14.01,2013-06-13 21:58:00,
2013-06-13 18:03:00,87.6,64.3,29.97,North,0,0.0,0.0,46,0.08,,SCT120,0.08,VWS V14.01,2013-06-13 22:03:00,
2013-06-13 18:08:00,87.8,63.8,29.97,North,0,0.0,0.0,45,0.08,,SCT120,0.08,VWS V14.01,2013-06-13 22:08:00,
2013-06-13 18:13:00,87.3,62.7,29.97,North,0,0.0,0.0,44,0.08,,SCT120,0.08,VWS V14.01,2013-06-13 22:13:00,
2013-06-13 18:18:00,86.9,63.7,29.97,North,0,0.0,0.0,46,0.08,,SCT120,0.08,VWS V14.01,2013-06-13 22:18:00,
2013-06-13 18:23:00,86.5,63.3,29.97,North,0,0.0,0.0,46,0.08,,SCT120,0.08,VWS V14.01,2013-06-13 22:23:00,
2013-06-13 18:28:00,86.4,63.8,29.97,North,0,0.0,0.0,47,0.08,,SCT120,0.08,VWS V14.01,2013-06-13 22:28:00,
2013-06-13 18:33:00,86.2,64.8,29.97,North,0,0.0,0.0,49,0.08,,SCT120,0.08,VWS V14.01,2013-06-13 22:33:00,
2013-06-13 18:38:00,86.0,64.6,29.97,North,0,0.0,0.0,49,0.08,,SCT120,0.08,VWS V14.01,2013-06-13 22:38:00,
2013-06-13 18:43:00,86.0,64.6,29.97,North,0,0.0,0.0,49,0.00,,SCT120,0.08,VWS V14.01,2013-06-13 22:43:00,
2013-06-13 18:48:00,85.8,65.6,29.97,North,0,0.0,0.0,51,0.00,,SCT120,0.08,VWS V14.01,2013-06-13 22:48:00,
2013-06-13 18:53:00,85.8,65.6,29.97,North,0,0.0,0.0,51,0.00,,SCT120,0.08,VWS V14.01,2013-06-13 22:53:00,
2013-06-13 18:58:00,85.8,65.6,29.97,North,0,0.0,0.0,51,0.00,,SCT120,0.08,VWS V14.01,2013-06-13 22:58:00,
2013-06-13 19:03:00,85.8,66.2,29.97,North,0,0.0,0.0,52,0.00,,SCT120,0.08,VWS V14.01,2013-06-13 23:03:00,
2013-06-13 19:08:00,85.5,65.3,29.97,North,0,0.0,0.0,51,0.00,,SCT120,0.08,VWS V14.01,2013-06-13 23:08:00,
2013-06-13 19:13:00,85.5,65.8,29.97,North,0,0.0,0.0,52,0.00,,SCT120,0.08,VWS V14.01,2013-06-13 23:13:00,
2013-06-13 19:18:00,85.1,65.5,29.97,North,0,0.0,0.0,52,0.00,,SCT120,0.08,VWS V14.01,2013-06-13 23:18:00,
2013-06-13 19:23:00,85.1,68.2,29.97,North,0,0.0,0.0,57,0.00,,SCT120,0.08,VWS V14.01,2013-06-13 23:23:00,
2013-06-13 19:28:00,84.7,67.3,30.00,North,0,0.0,0.0,56,0.00,,SCT120,0.08,VWS V14.01,2013-06-13 23:28:00,
2013-06-13 19:33:00,84.7,67.3,30.00,North,0,0.0,0.0,56,0.00,,SCT120,0.08,VWS V14.01,2013-06-13 23:33:00,
2013-06-13 19:38:00,84.6,67.2,30.00,North,0,0.0,0.0,56,0.00,,SCT120,0.08,VWS V14.01,2013-06-13 23:38:00,
2013-06-13 19:43:00,84.7,67.8,30.00,North,0,0.0,0.0,57,0.00,,SCT120,0.08,VWS V14.01,2013-06-13 23:43:00,
2013-06-13 19:48:00,84.7,67.8,30.00,North,0,0.0,0.0,57,0.00,,SCT120,0.08,VWS V14.01,2013-06-13 23:48:00,
2013-06-13 19:53:00,84.6,68.2,30.00,North,0,0.0,0.0,58,0.00,,SCT120,0.08,VWS V14.01,2013-06-13 23:53:00,
2013-06-13 19:58:00,84.6,68.7,30.00,North,0,0.0,0.0,59,0.00,,SCT120,0.08,VWS V14.01,2013-06-13 23:58:00,
2013-06-13 20:03:00,84.4,68.0,30.00,North,0,0.0,0.0,58,0.00,,SCT120,0.08,VWS V14.01,2013-06-14 00:03:00,
2013-06-13 20:08:00,84.4,68.0,30.00,North,0,0.0,0.0,58,0.00,,SCT120,0.08,VWS V14.01,2013-06-14 00:08:00,
2013-06-13 20:13:00,84.4,68.5,30.00,North,0,0.0,0.0,59,0.00,,SCT120,0.08,VWS V14.01,2013-06-14 00:13:00,
2013-06-13 20:18:00,84.4,68.0,30.00,North,0,0.0,0.0,58,0.00,,SCT120,0.08,VWS V14.01,2013-06-14 00:18:00,
2013-06-13 20:23:00,84.4,68.0,30.00,North,0,0.0,0.0,58,0.00,,SCT120,0.08,VWS V14.01,2013-06-14 00:23:00,
2013-06-13 20:28:00,84.6,68.2,30.00,North,0,0.0,0.0,58,0.00,,SCT120,0.08,VWS V14.01,2013-06-14 00:28:00,
2013-06-13 20:33:00,84.4,68.0,30.00,North,0,0.0,0.0,58,0.00,,SCT120,0.08,VWS V14.01,2013-06-14 00:33:00,
2013-06-13 20:38:00,84.2,67.8,30.00,North,0,0.0,0.0,58,0.00,,SCT120,0.08,VWS V14.01,2013-06-14 00:38:00,
2013-06-13 20:43:00,84.0,68.2,30.00,North,0,0.0,0.0,59,0.00,,SCT120,0.08,VWS V14.01,2013-06-14 00:43:00,
2013-06-13 20:48:00,83.8,67.5,30.00,North,0,0.0,0.0,58,0.00,,SCT120,0.08,VWS V14.01,2013-06-14 00:48:00,
2013-06-13 20:53:00,83.7,67.3,30.00,North,0,0.0,0.0,58,0.00,,SCT120,0.08,VWS V14.01,2013-06-14 00:53:00,
2013-06-13 20:58:00,83.5,67.7,30.00,North,0,0.0,0.0,59,0.00,,SCT120,0.08,VWS V14.01,2013-06-14 00:58:00,
2013-06-13 21:03:00,83.5,67.7,30.00,North,0,0.0,0.0,59,0.00,,SCT120,0.08,VWS V14.01,2013-06-14 01:03:00,
2013-06-13 21:08:00,83.3,68.0,30.00,North,0,0.0,0.0,60,0.00,,SCT120,0.08,VWS V14.01,2013-06-14 01:08:00,
2013-06-13 21:13:00,83.3,68.0,30.03,North,0,0.0,0.0,60,0.00,,SCT120,0.08,VWS V14.01,2013-06-14 01:13:00,
2013-06-13 21:18:00,83.1,68.3,30.03,North,0,0.0,0.0,61,0.00,,SCT120,0.08,VWS V14.01,2013-06-14 01:18:00,
2013-06-13 21:23:00,83.1,68.3,30.03,North,0,0.0,0.0,61,0.00,,SCT120,0.08,VWS V14.01,2013-06-14 01:23:00,
2013-06-13 21:28:00,83.1,68.8,30.03,North,0,0.0,0.0,62,0.00,,SCT120,0.08,VWS V14.01,2013-06-14 01:28:00,
2013-06-13 21:33:00,83.1,68.8,30.03,North,0,0.0,0.0,62,0.00,,SCT120,0.08,VWS V14.01,2013-06-14 01:33:00,
2013-06-13 21:38:00,83.1,68.8,30.03,North,0,0.0,0.0,62,0.00,,SCT120,0.08,VWS V14.01,2013-06-14 01:38:00,
2013-06-13 21:43:00,82.9,68.6,30.03,North,0,0.0,0.0,62,0.00,,SCT120,0.08,VWS V14.01,2013-06-14 01:43:00,
2013-06-13 21:48:00,82.9,69.1,30.03,North,0,0.0,0.0,63,0.00,,SCT120,0.08,VWS V14.01,2013-06-14 01:48:00,
2013-06-13 21:53:00,82.8,68.9,30.03,North,0,0.0,0.0,63,0.00,,SCT120,0.08,VWS V14.01,2013-06-14 01:53:00,
2013-06-13 21:58:00,82.6,68.7,30.03,North,0,0.0,0.0,63,0.00,,SCT120,0.08,VWS V14.01,2013-06-14 01:58:00,
2013-06-13 22:03:00,82.6,68.2,30.03,North,0,0.0,0.0,62,0.00,,SCT120,0.08,VWS V14.01,2013-06-14 02:03:00,
2013-06-13 22:08:00,82.6,68.2,30.03,North,0,0.0,0.0,62,0.00,,SCT120,0.08,VWS V14.01,2013-06-14 02:08:00,
2013-06-13 22:13:00,82.6,68.2,30.03,North,0,0.0,0.0,62,0.00,,SCT120,0.08,VWS V14.01,2013-06-14 02:13:00,
2013-06-13 22:18:00,82.6,68.2,30.03,North,0,0.0,0.0,62,0.00,,SCT120,0.08,VWS V14.01,2013-06-14 02:18:00,
2013-06-13 22:23:00,82.4,68.1,30.03,North,0,0.0,0.0,62,0.00,,SCT120,0.08,VWS V14.01,2013-06-14 02:23:00,
2013-06-13 22:28:00,82.2,68.4,30.03,North,0,0.0,0.0,63,0.00,,SCT120,0.08,VWS V14.01,2013-06-14 02:28:00,
2013-06-13 22:33:00,82.2,68.4,30.03,North,0,0.0,0.0,63,0.00,,SCT120,0.08,VWS V14.01,2013-06-14 02:33:00,
2013-06-13 22:38:00,82.0,68.2,30.03,North,0,0.0,0.0,63,0.00,,SCT120,0.08,VWS V14.01,2013-06-14 02:38:00,
2013-06-13 22:43:00,81.9,68.0,30.03,North,0,0.0,0.0,63,0.00,,SCT120,0.08,VWS V14.01,2013-06-14 02:43:00,
2013-06-13 22:48:00,81.5,67.7,30.03,North,0,0.0,0.0,63,0.00,,SCT120,0.08,VWS V14.01,2013-06-14 02:48:00,
2013-06-13 22:53:00,81.5,68.2,30.03,North,0,0.0,0.0,64,0.00,,SCT120,0.08,VWS V14.01,2013-06-14 02:53:00,
2013-06-13 22:58:00,81.5,68.6,30.03,North,0,0.0,0.0,65,0.00,,SCT120,0.08,VWS V14.01,2013-06-14 02:58:00,
2013-06-13 23:03:00,81.1,68.3,30.03,North,0,0.0,0.0,65,0.00,,SCT120,0.08,VWS V14.01,2013-06-14 03:03:00,
2013-06-13 23:08:00,81.3,68.9,30.03,North,0,0.0,0.0,66,0.00,,SCT120,0.08,VWS V14.01,2013-06-14 03:08:00,
2013-06-13 23:13:00,81.1,69.2,30.03,North,0,0.0,0.0,67,0.00,,SCT120,0.08,VWS V14.01,2013-06-14 03:13:00,
2013-06-13 23:18:00,81.1,69.2,30.03,North,0,0.0,0.0,67,0.00,,SCT120,0.08,VWS V14.01,2013-06-14 03:18:00,
2013-06-13 23:23:00,81.3,69.3,30.03,North,0,0.0,0.0,67,0.00,,SCT120,0.08,VWS V14.01,2013-06-14 03:23:00,
2013-06-13 23:28:00,81.3,69.3,30.03,North,0,0.0,0.0,67,0.00,,SCT120,0.08,VWS V14.01,2013-06-14 03:28:00,
2013-06-13 23:33:00,81.3,69.3,30.03,North,0,0.0,0.0,67,0.00,,SCT120,0.08,VWS V14.01,2013-06-14 03:33:00,
2013-06-13 23:38:00,81.3,69.3,30.03,North,0,0.0,0.0,67,0.00,,SCT120,0.08,VWS V14.01,2013-06-14 03:38:00,
2013-06-13 23:43:00,81.1,69.2,30.03,North,0,0.0,0.0,67,0.00,,SCT120,0.08,VWS V14.01,2013-06-14 03:43:00,
2013-06-13 23:48:00,81.0,69.0,30.03,North,0,0.0,0.0,67,0.00,,SCT120,0.08,VWS V14.01,2013-06-14 03:48:00,
2013-06-13 23:53:00,81.0,69.0,30.03,North,0,0.0,0.0,67,0.00,,SCT120,0.08,VWS V14.01,2013-06-14 03:53:00,
2013-06-13 23:58:00,80.8,69.2,30.03,North,0,0.0,0.0,68,0.00,,SCT120,0.08,VWS V14.01,2013-06-14 03:58:00,